createdAt,value
2022-10-11T00:01:26.284Z,58.68
2022-10-11T00:03:57.651Z,58.75
2022-10-11T00:06:29.158Z,58.82
2022-10-11T00:09:00.705Z,58.82
2022-10-11T00:11:32.350Z,58.70
2022-10-11T00:14:03.771Z,58.83
2022-10-11T00:16:35.258Z,58.80
2022-10-11T00:19:06.819Z,58.87
2022-10-11T00:21:38.670Z,58.85
2022-10-11T00:24:12.010Z,58.98
2022-10-11T00:26:46.859Z,59.09
2022-10-11T00:29:18.965Z,59.06
2022-10-11T00:31:50.343Z,59.19
2022-10-11T00:34:21.768Z,59.29
2022-10-11T00:36:53.127Z,59.32
2022-10-11T00:39:24.648Z,59.49
2022-10-11T00:41:56.746Z,59.66
2022-10-11T00:44:30.319Z,59.71
2022-10-11T00:47:03.550Z,59.80
2022-10-11T00:49:41.949Z,59.85
2022-10-11T00:52:18.503Z,59.94
2022-10-11T00:54:51.316Z,59.93
2022-10-11T00:57:27.259Z,59.96
2022-10-11T00:59:59.769Z,60.10
2022-10-11T01:02:31.484Z,60.07
2022-10-11T01:05:27.555Z,59.99
2022-10-11T01:07:57.029Z,60.18
2022-10-11T01:10:28.891Z,60.18
2022-10-11T01:13:21.321Z,60.19
2022-10-11T01:16:00.461Z,60.44
2022-10-11T01:18:43.711Z,60.39
2022-10-11T01:21:27.236Z,60.56
2022-10-11T01:24:34.813Z,60.69
2022-10-11T01:27:40.877Z,60.85
2022-10-11T01:30:22.057Z,60.98
2022-10-11T01:33:06.514Z,60.92
2022-10-11T01:35:42.594Z,60.99
2022-10-11T01:38:22.947Z,61.04
2022-10-11T01:40:57.780Z,60.95
2022-10-11T01:43:30.058Z,60.96
2022-10-11T01:46:03.528Z,60.89
2022-10-11T01:48:33.760Z,60.91
2022-10-11T01:51:05.788Z,61.07
2022-10-11T01:54:00.732Z,61.00
2022-10-11T01:56:50.544Z,61.16
2022-10-11T01:59:34.282Z,61.09
2022-10-11T02:02:20.386Z,61.14
2022-10-11T02:04:58.975Z,61.24
2022-10-11T02:07:39.567Z,61.23
2022-10-11T02:10:16.996Z,61.37
2022-10-11T02:12:55.084Z,61.35
2022-10-11T02:15:31.701Z,61.38
2022-10-11T02:18:07.697Z,61.45
2022-10-11T02:20:42.436Z,61.48
2022-10-11T02:23:17.980Z,61.47
2022-10-11T02:25:51.163Z,61.46
2022-10-11T02:28:26.387Z,61.46
2022-10-11T02:31:01.107Z,61.48
2022-10-11T02:33:37.443Z,61.46
2022-10-11T02:36:17.537Z,61.51
2022-10-11T02:38:54.022Z,61.56
2022-10-11T02:41:31.086Z,61.58
2022-10-11T02:44:08.996Z,61.56
2022-10-11T02:46:42.748Z,61.63
2022-10-11T02:49:13.340Z,61.59
2022-10-11T02:51:44.847Z,61.81
2022-10-11T02:54:16.348Z,61.73
2022-10-11T02:56:47.800Z,61.66
2022-10-11T02:59:19.344Z,61.72
2022-10-11T03:01:50.787Z,61.80
2022-10-11T03:04:22.249Z,61.82
2022-10-11T03:06:53.615Z,61.78
2022-10-11T03:09:25.106Z,61.87
2022-10-11T03:11:56.533Z,61.87
2022-10-11T03:14:28.161Z,61.85
2022-10-11T03:17:17.185Z,61.89
2022-10-11T03:19:51.557Z,61.96
2022-10-11T03:22:23.335Z,62.00
2022-10-11T03:24:57.510Z,62.01
2022-10-11T03:27:32.558Z,62.07
2022-10-11T03:30:04.851Z,62.10
2022-10-11T03:32:36.238Z,62.15
2022-10-11T03:35:09.515Z,62.20
2022-10-11T03:37:41.045Z,62.22
2022-10-11T03:40:14.367Z,62.22
2022-10-11T03:42:45.755Z,62.23
2022-10-11T03:45:17.246Z,62.27
2022-10-11T03:47:48.656Z,62.38
2022-10-11T03:50:20.168Z,62.42
2022-10-11T03:52:51.825Z,62.51
2022-10-11T03:55:23.351Z,62.57
2022-10-11T03:57:54.798Z,62.48
2022-10-11T04:00:26.372Z,62.51
2022-10-11T04:02:57.911Z,62.49
2022-10-11T04:05:29.409Z,62.49
2022-10-11T04:08:00.853Z,62.50
2022-10-11T04:10:32.254Z,62.62
2022-10-11T04:13:04.243Z,62.54
2022-10-11T04:15:35.675Z,62.65
2022-10-11T04:18:07.575Z,62.66
2022-10-11T04:20:39.221Z,62.74
2022-10-11T04:23:10.868Z,62.78
2022-10-11T04:25:42.330Z,62.85
2022-10-11T04:28:13.879Z,62.92
2022-10-11T04:30:45.484Z,63.02
2022-10-11T04:33:16.996Z,63.17
2022-10-11T04:35:48.401Z,63.19
2022-10-11T04:38:19.885Z,63.24
2022-10-11T04:40:51.451Z,63.34
2022-10-11T04:43:23.104Z,63.47
2022-10-11T04:45:55.585Z,63.56
2022-10-11T04:48:27.297Z,63.62
2022-10-11T04:50:58.728Z,63.76
2022-10-11T04:53:30.460Z,63.88
2022-10-11T04:56:04.924Z,63.91
2022-10-11T04:58:37.874Z,64.06
2022-10-11T05:01:09.841Z,64.25
2022-10-11T05:03:41.301Z,64.36
2022-10-11T05:06:13.233Z,64.48
2022-10-11T05:08:45.115Z,64.66
2022-10-11T05:11:18.654Z,64.82
2022-10-11T05:13:50.121Z,64.91
2022-10-11T05:16:21.622Z,64.95
2022-10-11T05:18:53.036Z,64.98
2022-10-11T05:21:26.310Z,65.05
2022-10-11T05:23:58.665Z,65.14
2022-10-11T05:26:30.922Z,65.29
2022-10-11T05:29:02.390Z,65.38
2022-10-11T05:31:33.894Z,65.39
2022-10-11T05:34:05.462Z,65.47
2022-10-11T05:36:36.912Z,65.56
2022-10-11T05:39:08.674Z,65.61
2022-10-11T05:41:40.135Z,65.68
2022-10-11T05:44:11.693Z,65.72
2022-10-11T05:46:43.133Z,65.79
2022-10-11T05:49:14.584Z,65.93
2022-10-11T05:51:46.039Z,65.92
2022-10-11T05:54:17.499Z,65.89
2022-10-11T05:56:49.048Z,65.97
2022-10-11T05:59:20.458Z,66.12
2022-10-11T06:01:51.987Z,66.01
2022-10-11T06:04:23.502Z,65.97
2022-10-11T06:06:55.059Z,66.12
2022-10-11T06:09:26.436Z,66.14
2022-10-11T06:11:58.067Z,66.06
2022-10-11T06:14:29.836Z,66.08
2022-10-11T06:17:01.269Z,66.11
2022-10-11T06:19:32.736Z,66.04
2022-10-11T06:22:04.237Z,66.18
2022-10-11T06:24:35.590Z,66.28
2022-10-11T06:27:08.145Z,66.25
2022-10-11T06:29:39.989Z,66.33
2022-10-11T06:32:13.315Z,66.38
2022-10-11T06:34:44.726Z,66.34
2022-10-11T06:37:16.327Z,66.38
2022-10-11T06:39:47.737Z,66.40
2022-10-11T06:42:19.190Z,66.43
2022-10-11T06:44:50.648Z,66.46
2022-10-11T06:47:22.032Z,66.54
2022-10-11T06:49:53.436Z,66.54
2022-10-11T06:52:24.924Z,66.59
2022-10-11T06:54:56.320Z,66.67
2022-10-11T06:57:28.785Z,66.77
2022-10-11T07:00:00.399Z,66.77
2022-10-11T07:02:31.845Z,66.75
2022-10-11T07:05:03.292Z,66.82
2022-10-11T07:07:34.648Z,66.90
2022-10-11T07:10:07.204Z,66.96
2022-10-11T07:12:38.780Z,67.04
2022-10-11T07:15:12.932Z,66.92
2022-10-11T07:17:44.350Z,66.74
2022-10-11T07:20:16.007Z,66.68
2022-10-11T07:22:47.469Z,66.65
2022-10-11T07:25:19.022Z,66.41
2022-10-11T07:27:50.415Z,66.37
2022-10-11T07:30:22.131Z,66.34
2022-10-11T07:32:53.524Z,66.09
2022-10-11T07:35:25.543Z,65.47
2022-10-11T07:37:56.955Z,65.01
2022-10-11T07:40:28.659Z,64.73
2022-10-11T07:43:00.993Z,64.68
2022-10-11T07:45:32.576Z,64.83
2022-10-11T07:48:03.954Z,64.94
2022-10-11T07:50:35.690Z,64.83
2022-10-11T07:53:07.122Z,64.78
2022-10-11T07:55:40.293Z,64.84
2022-10-11T07:58:13.328Z,64.98
2022-10-11T08:00:44.744Z,65.07
2022-10-11T08:03:16.229Z,65.04
2022-10-11T08:05:47.655Z,65.00
2022-10-11T08:08:19.118Z,64.99
2022-10-11T08:10:50.706Z,63.98
2022-10-11T08:13:22.114Z,63.90
2022-10-11T08:15:54.049Z,63.22
2022-10-11T08:18:25.966Z,62.60
2022-10-11T08:20:57.436Z,62.42
2022-10-11T08:23:28.976Z,62.29
2022-10-11T08:26:00.727Z,62.43
2022-10-11T08:28:32.655Z,62.49
2022-10-11T08:31:04.770Z,62.53
2022-10-11T08:33:36.226Z,62.77
2022-10-11T08:36:10.213Z,62.98
2022-10-11T08:38:43.222Z,63.05
2022-10-11T08:41:30.572Z,63.21
2022-10-11T08:44:15.521Z,63.22
2022-10-11T08:46:56.920Z,63.23
2022-10-11T08:49:34.611Z,63.40
2022-10-11T08:52:12.408Z,63.45
2022-10-11T08:54:49.485Z,63.46
2022-10-11T08:57:23.866Z,63.27
2022-10-11T08:59:57.744Z,63.27
2022-10-11T09:03:06.868Z,63.14
2022-10-11T09:05:40.759Z,63.22
2022-10-11T09:08:22.239Z,63.36
2022-10-11T09:11:05.683Z,63.24
2022-10-11T09:13:58.846Z,63.37
2022-10-11T09:16:40.324Z,63.24
2022-10-11T09:19:33.347Z,63.32
2022-10-11T09:22:15.998Z,63.20
2022-10-11T09:25:01.563Z,63.31
2022-10-11T09:28:01.149Z,63.41
2022-10-11T09:30:29.058Z,63.37
2022-10-11T09:33:11.888Z,63.22
2022-10-11T09:35:47.547Z,63.16
2022-10-11T09:38:36.711Z,63.24
2022-10-11T09:41:16.253Z,63.36
2022-10-11T09:43:51.487Z,63.48
2022-10-11T09:46:30.822Z,63.28
2022-10-11T09:49:04.948Z,63.40
2022-10-11T09:51:35.486Z,63.38
2022-10-11T09:54:10.512Z,63.47
2022-10-11T09:56:46.623Z,63.48
2022-10-11T09:59:30.685Z,63.58
2022-10-11T10:02:24.709Z,63.48
2022-10-11T10:05:05.403Z,63.63
2022-10-11T10:07:39.520Z,63.64
2022-10-11T10:10:29.588Z,63.44
2022-10-11T10:13:03.932Z,63.30
2022-10-11T10:15:38.050Z,63.32
2022-10-11T10:18:19.938Z,63.58
2022-10-11T10:20:55.849Z,63.51
2022-10-11T10:23:31.413Z,63.48
2022-10-11T10:26:18.866Z,63.55
2022-10-11T10:29:03.379Z,63.55
2022-10-11T10:32:01.932Z,63.52
2022-10-11T10:34:35.183Z,63.40
2022-10-11T10:37:14.211Z,63.49
2022-10-11T10:39:49.363Z,63.56
2022-10-11T10:42:22.359Z,63.56
2022-10-11T10:44:58.722Z,63.47
2022-10-11T10:47:46.144Z,63.61
2022-10-11T10:50:24.599Z,63.70
2022-10-11T10:53:15.458Z,63.46
2022-10-11T10:55:52.867Z,63.38
2022-10-11T10:58:43.446Z,62.99
2022-10-11T11:01:21.908Z,62.86
2022-10-11T11:03:58.935Z,62.85
2022-10-11T11:06:37.783Z,62.77
2022-10-11T11:09:29.395Z,62.82
2022-10-11T11:12:15.187Z,62.88
2022-10-11T11:14:56.567Z,62.52
2022-10-11T11:17:40.717Z,62.41
2022-10-11T11:20:22.705Z,62.45
2022-10-11T11:23:02.108Z,62.28
2022-10-11T11:25:44.885Z,62.18
2022-10-11T11:28:42.611Z,62.25
2022-10-11T11:31:27.393Z,62.44
2022-10-11T11:34:06.320Z,62.24
2022-10-11T11:36:46.992Z,61.79
2022-10-11T11:39:21.849Z,61.09
2022-10-11T11:41:59.423Z,61.00
2022-10-11T11:44:37.122Z,60.70
2022-10-11T11:47:13.377Z,59.90
2022-10-11T11:49:49.336Z,60.05
2022-10-11T11:52:28.032Z,58.91
2022-10-11T11:55:06.544Z,58.34
2022-10-11T11:57:54.943Z,56.49
2022-10-11T12:00:30.891Z,55.56
2022-10-11T12:03:04.859Z,53.96
2022-10-11T12:05:37.946Z,53.13
2022-10-11T12:08:25.849Z,52.73
2022-10-11T12:11:04.448Z,51.21
2022-10-11T12:13:38.917Z,50.73
2022-10-11T12:16:15.599Z,50.30
2022-10-11T12:19:02.051Z,50.37
2022-10-11T12:21:36.051Z,49.71
2022-10-11T12:24:23.594Z,49.13
2022-10-11T12:26:58.651Z,48.48
2022-10-11T12:29:49.743Z,47.41
2022-10-11T12:32:52.128Z,46.51
2022-10-11T12:35:48.649Z,45.83
2022-10-11T12:38:23.386Z,45.62
2022-10-11T12:40:57.248Z,45.88
2022-10-11T12:43:57.301Z,45.58
2022-10-11T12:46:58.829Z,45.24
2022-10-11T12:49:42.024Z,44.23
2022-10-11T12:52:30.360Z,44.12
2022-10-11T12:55:31.300Z,44.31
2022-10-11T12:58:30.117Z,44.66
2022-10-11T13:01:35.617Z,44.66
2022-10-11T13:04:10.974Z,44.96
2022-10-11T13:06:49.499Z,44.94
2022-10-11T13:09:29.754Z,45.13
2022-10-11T13:12:05.513Z,44.94
2022-10-11T13:14:43.621Z,45.19
2022-10-11T13:17:21.946Z,45.43
2022-10-11T13:20:02.830Z,45.51
2022-10-11T13:22:39.378Z,45.60
2022-10-11T13:25:16.069Z,45.56
2022-10-11T13:27:49.251Z,45.82
2022-10-11T13:30:26.031Z,45.81
2022-10-11T13:32:58.959Z,45.72
2022-10-11T13:35:34.535Z,45.91
2022-10-11T13:38:10.388Z,45.58
2022-10-11T13:40:42.074Z,45.49
2022-10-11T13:43:15.932Z,45.24
2022-10-11T13:45:47.744Z,45.35
2022-10-11T13:48:19.554Z,45.35
2022-10-11T13:51:07.888Z,45.47
2022-10-11T13:53:39.412Z,45.69
2022-10-11T13:56:12.629Z,45.48
2022-10-11T13:58:48.589Z,45.50
2022-10-11T14:01:23.354Z,45.31
2022-10-11T14:04:00.424Z,45.35
2022-10-11T14:06:44.213Z,45.44
2022-10-11T14:09:27.755Z,45.80
2022-10-11T14:12:33.243Z,46.01
2022-10-11T14:15:06.303Z,46.06
2022-10-11T14:17:44.835Z,46.04
2022-10-11T14:20:21.192Z,46.04
2022-10-11T14:22:55.089Z,45.89
2022-10-11T14:25:26.624Z,45.96
2022-10-11T14:27:58.551Z,46.27
2022-10-11T14:30:31.930Z,46.41
2022-10-11T14:33:04.020Z,46.57
2022-10-11T14:35:35.621Z,46.58
2022-10-11T14:38:07.169Z,46.47
2022-10-11T14:40:38.589Z,46.53
2022-10-11T14:43:10.105Z,46.50
2022-10-11T14:45:41.659Z,46.53
2022-10-11T14:48:13.274Z,46.88
2022-10-11T14:50:48.124Z,46.84
2022-10-11T14:53:19.645Z,47.03
2022-10-11T14:55:51.239Z,47.04
2022-10-11T14:58:22.670Z,47.16
2022-10-11T15:00:54.126Z,47.41
2022-10-11T15:03:25.683Z,47.38
2022-10-11T15:05:57.249Z,47.54
2022-10-11T15:08:28.805Z,47.59
2022-10-11T15:11:00.361Z,47.61
2022-10-11T15:13:32.012Z,47.72
2022-10-11T15:16:03.827Z,47.80
2022-10-11T15:18:35.639Z,47.84
2022-10-11T15:21:07.920Z,48.06
2022-10-11T15:23:39.324Z,48.17
2022-10-11T15:26:14.543Z,48.17
2022-10-11T15:28:46.704Z,48.38
2022-10-11T15:31:18.907Z,48.48
2022-10-11T15:33:51.077Z,48.48
2022-10-11T15:36:24.133Z,48.69
2022-10-11T15:38:55.548Z,48.86
2022-10-11T15:41:27.325Z,49.13
2022-10-11T15:43:58.750Z,49.21
2022-10-11T15:46:30.206Z,49.43
2022-10-11T15:49:06.536Z,49.45
2022-10-11T15:51:38.275Z,49.68
2022-10-11T15:54:10.121Z,49.92
2022-10-11T15:56:41.595Z,50.14
2022-10-11T15:59:13.340Z,50.27
2022-10-11T16:01:44.973Z,50.55
2022-10-11T16:04:16.449Z,50.71
2022-10-11T16:06:48.100Z,50.89
2022-10-11T16:09:19.617Z,51.03
2022-10-11T16:11:51.057Z,51.30
2022-10-11T16:14:22.480Z,51.32
2022-10-11T16:16:53.958Z,51.65
2022-10-11T16:19:25.396Z,51.70
2022-10-11T16:21:56.929Z,51.87
2022-10-11T16:24:28.366Z,52.13
2022-10-11T16:26:59.770Z,52.23
2022-10-11T16:29:31.585Z,52.41
2022-10-11T16:32:03.148Z,52.47
2022-10-11T16:34:35.409Z,52.77
2022-10-11T16:37:06.863Z,52.89
2022-10-11T16:39:38.327Z,53.01
2022-10-11T16:42:09.752Z,53.23
2022-10-11T16:44:41.751Z,53.47
2022-10-11T16:47:13.300Z,53.49
2022-10-11T16:49:46.023Z,53.63
2022-10-11T16:52:18.047Z,53.78
2022-10-11T16:54:49.977Z,54.04
2022-10-11T16:57:21.768Z,54.18
2022-10-11T16:59:53.530Z,54.46
2022-10-11T17:02:32.088Z,54.62
2022-10-11T17:05:04.209Z,54.85
2022-10-11T17:07:37.208Z,54.97
2022-10-11T17:10:10.697Z,55.10
2022-10-11T17:12:46.524Z,55.30
2022-10-11T17:15:22.045Z,55.54
2022-10-11T17:17:56.231Z,55.62
2022-10-11T17:20:27.697Z,55.71
2022-10-11T17:22:59.231Z,55.93
2022-10-11T17:25:30.815Z,56.14
2022-10-11T17:28:02.456Z,56.26
2022-10-11T17:30:34.011Z,56.46
2022-10-11T17:33:06.169Z,56.57
2022-10-11T17:35:37.591Z,56.71
2022-10-11T17:38:09.072Z,56.71
2022-10-11T17:40:40.524Z,56.80
2022-10-11T17:43:12.088Z,57.07
2022-10-11T17:45:43.521Z,57.10
2022-10-11T17:48:14.982Z,57.17
2022-10-11T17:50:50.505Z,57.24
2022-10-11T17:53:22.499Z,57.36
2022-10-11T17:55:54.402Z,57.43
2022-10-11T17:58:27.041Z,57.51
2022-10-11T18:01:04.621Z,57.74
2022-10-11T18:03:37.029Z,57.91
2022-10-11T18:06:10.684Z,58.11
2022-10-11T18:08:41.503Z,58.20
2022-10-11T18:11:16.898Z,58.37
2022-10-11T18:13:50.547Z,58.43
2022-10-11T18:16:24.113Z,58.62
2022-10-11T18:18:57.488Z,58.61
2022-10-11T18:21:34.363Z,58.80
2022-10-11T18:24:10.875Z,58.99
2022-10-11T18:26:42.717Z,59.02
2022-10-11T18:29:15.099Z,59.07
2022-10-11T18:31:46.950Z,59.26
2022-10-11T18:34:18.379Z,59.26
2022-10-11T18:36:49.865Z,59.49
2022-10-11T18:39:22.163Z,59.46
2022-10-11T18:41:53.665Z,59.60
2022-10-11T18:44:25.439Z,59.76
2022-10-11T18:46:56.841Z,59.74
2022-10-11T18:49:28.558Z,59.85
2022-10-11T18:52:00.818Z,59.75
2022-10-11T18:54:35.236Z,59.84
2022-10-11T18:57:06.799Z,59.95
2022-10-11T18:59:38.504Z,59.97
2022-10-11T19:02:11.402Z,60.09
2022-10-11T19:04:42.887Z,60.22
2022-10-11T19:07:14.290Z,60.35
2022-10-11T19:09:47.125Z,60.47
2022-10-11T19:12:19.306Z,60.50
2022-10-11T19:14:51.359Z,60.53
2022-10-11T19:17:23.047Z,60.61
2022-10-11T19:19:54.864Z,60.71
2022-10-11T19:22:26.418Z,60.69
2022-10-11T19:24:57.839Z,60.81
2022-10-11T19:27:29.440Z,60.99
2022-10-11T19:30:01.403Z,61.13
2022-10-11T19:32:32.943Z,61.19
2022-10-11T19:35:04.506Z,61.31
2022-10-11T19:37:35.976Z,61.31
2022-10-11T19:40:09.834Z,61.43
2022-10-11T19:42:41.311Z,61.47
2022-10-11T19:45:13.442Z,61.34
2022-10-11T19:47:44.847Z,61.38
2022-10-11T19:50:16.526Z,61.53
2022-10-11T19:52:47.970Z,61.58
2022-10-11T19:55:19.397Z,61.74
2022-10-11T19:57:50.819Z,61.73
2022-10-11T20:00:22.514Z,61.73
2022-10-11T20:02:53.843Z,61.79
2022-10-11T20:05:25.309Z,61.78
2022-10-11T20:07:56.690Z,61.84
2022-10-11T20:10:28.195Z,61.92
2022-10-11T20:12:59.757Z,62.03
2022-10-11T20:15:31.141Z,62.03
2022-10-11T20:18:02.539Z,62.15
2022-10-11T20:20:33.997Z,62.29
2022-10-11T20:23:05.461Z,62.34
2022-10-11T20:25:36.876Z,62.37
2022-10-11T20:28:08.482Z,62.43
2022-10-11T20:30:44.402Z,62.64
2022-10-11T20:33:15.769Z,62.64
2022-10-11T20:35:57.145Z,62.53
2022-10-11T20:38:29.412Z,62.67
2022-10-11T20:41:05.592Z,62.80
2022-10-11T20:43:37.177Z,62.76
2022-10-11T20:46:10.681Z,62.87
2022-10-11T20:48:42.808Z,62.79
2022-10-11T20:51:14.247Z,62.70
2022-10-11T20:53:45.706Z,62.80
2022-10-11T20:56:19.414Z,62.85
2022-10-11T20:58:51.303Z,62.95
2022-10-11T21:01:24.237Z,63.24
2022-10-11T21:03:57.862Z,62.93
2022-10-11T21:06:28.177Z,63.04
2022-10-11T21:09:00.344Z,63.27
2022-10-11T21:11:33.505Z,63.34
2022-10-11T21:14:07.184Z,63.38
2022-10-11T21:16:38.607Z,63.32
2022-10-11T21:19:13.214Z,63.47
2022-10-11T21:21:50.968Z,63.45
2022-10-11T21:24:24.948Z,63.69
2022-10-11T21:27:00.473Z,63.67
2022-10-11T21:29:32.376Z,63.84
2022-10-11T21:32:03.897Z,63.84
2022-10-11T21:34:35.357Z,63.73
2022-10-11T21:37:06.894Z,63.86
2022-10-11T21:39:38.357Z,63.89
2022-10-11T21:42:09.763Z,64.06
2022-10-11T21:44:43.454Z,63.97
2022-10-11T21:47:13.522Z,63.93
2022-10-11T21:49:47.866Z,64.12
2022-10-11T21:52:19.254Z,64.01
2022-10-11T21:54:50.741Z,64.02
2022-10-11T21:57:22.201Z,64.13
2022-10-11T21:59:53.655Z,64.18
2022-10-11T22:02:28.173Z,64.33
2022-10-11T22:04:59.726Z,64.32
2022-10-11T22:07:31.301Z,64.28
2022-10-11T22:10:02.857Z,64.33
2022-10-11T22:12:34.804Z,64.44
2022-10-11T22:15:08.363Z,64.39
2022-10-11T22:17:39.932Z,64.50
2022-10-11T22:20:16.861Z,64.51
2022-10-11T22:22:48.485Z,64.60
2022-10-11T22:25:20.165Z,64.59
2022-10-11T22:27:51.667Z,64.84
2022-10-11T22:30:23.650Z,64.92
2022-10-11T22:32:55.239Z,64.98
2022-10-11T22:35:27.010Z,65.09
2022-10-11T22:37:58.618Z,65.05
2022-10-11T22:40:30.183Z,65.13
2022-10-11T22:43:02.037Z,65.25
2022-10-11T22:45:33.670Z,65.26
2022-10-11T22:48:05.531Z,65.24
2022-10-11T22:50:37.220Z,65.28
2022-10-11T22:53:09.243Z,65.33
2022-10-11T22:55:41.253Z,65.29
2022-10-11T22:58:12.841Z,65.40
2022-10-11T23:00:44.902Z,65.36
